createdAt,value
2019-04-21T00:00:39.704Z,986.08
2019-04-21T00:01:44.422Z,986.05
2019-04-21T00:02:42.378Z,986.01
2019-04-21T00:03:47.686Z,986.03
2019-04-21T00:04:50.872Z,986.02
2019-04-21T00:05:58.928Z,986.02
2019-04-21T00:06:56.654Z,985.95
2019-04-21T00:08:05.019Z,985.92
2019-04-21T00:09:02.393Z,985.89
2019-04-21T00:09:58.410Z,985.91
2019-04-21T00:11:02.942Z,985.90
2019-04-21T00:11:56.947Z,985.89
2019-04-21T00:12:52.277Z,985.85
2019-04-21T00:13:53.835Z,985.85
2019-04-21T00:14:51.342Z,985.84
2019-04-21T00:15:46.737Z,985.80
2019-04-21T00:16:45.456Z,985.79
2019-04-21T00:17:38.975Z,985.78
2019-04-21T00:18:47.922Z,985.77
2019-04-21T00:19:39.146Z,985.77
2019-04-21T00:20:43.914Z,985.75
2019-04-21T00:21:45.016Z,985.76
2019-04-21T00:22:50.539Z,985.77
2019-04-21T00:23:55.280Z,985.76
2019-04-21T00:24:48.783Z,985.78
2019-04-21T00:25:47.852Z,985.73
2019-04-21T00:26:57.324Z,985.71
2019-04-21T00:27:50.119Z,985.69
2019-04-21T00:29:06.318Z,985.71
2019-04-21T00:29:58.280Z,985.68
2019-04-21T00:30:57.028Z,985.71
2019-04-21T00:31:51.393Z,985.72
2019-04-21T00:32:49.994Z,985.67
2019-04-21T00:33:40.964Z,985.70
2019-04-21T00:34:36.443Z,985.74
2019-04-21T00:35:45.097Z,985.72
2019-04-21T00:36:47.234Z,985.73
2019-04-21T00:37:53.475Z,985.73
2019-04-21T00:39:09.954Z,985.75
2019-04-21T00:40:00.980Z,985.70
2019-04-21T00:41:01.753Z,985.68
2019-04-21T00:41:55.846Z,985.66
2019-04-21T00:42:55.672Z,985.67
2019-04-21T00:43:49.085Z,985.65
2019-04-21T00:44:52.000Z,985.68
2019-04-21T00:45:48.739Z,985.62
2019-04-21T00:46:52.129Z,985.60
2019-04-21T00:47:58.781Z,985.63
2019-04-21T00:48:59.220Z,985.64
2019-04-21T00:49:57.807Z,985.59
2019-04-21T00:51:10.938Z,985.55
2019-04-21T00:52:07.146Z,985.59
2019-04-21T00:54:04.415Z,985.56
2019-04-21T00:55:10.977Z,985.56
2019-04-21T00:55:59.172Z,985.55
2019-04-21T00:58:02.034Z,985.56
2019-04-21T00:58:59.925Z,985.53
2019-04-21T01:00:00.930Z,985.55
2019-04-21T01:00:58.903Z,985.50
2019-04-21T01:01:55.472Z,985.49
2019-04-21T01:02:57.553Z,985.52
2019-04-21T01:03:58.472Z,985.49
2019-04-21T01:05:01.653Z,985.47
2019-04-21T01:05:57.314Z,985.46
2019-04-21T01:06:54.470Z,985.48
2019-04-21T01:07:50.305Z,985.48
2019-04-21T01:08:55.470Z,985.46
2019-04-21T01:09:48.518Z,985.43
2019-04-21T01:10:48.966Z,985.43
2019-04-21T01:11:59.339Z,985.44
2019-04-21T01:12:56.121Z,985.39
2019-04-21T01:14:05.832Z,985.46
2019-04-21T01:15:59.109Z,985.41
2019-04-21T01:17:00.369Z,985.44
2019-04-21T01:19:02.205Z,985.38
2019-04-21T01:19:57.475Z,985.38
2019-04-21T01:21:45.881Z,985.42
2019-04-21T01:22:45.792Z,985.35
2019-04-21T01:24:43.426Z,985.43
2019-04-21T01:25:44.893Z,985.41
2019-04-21T01:28:02.242Z,985.40
2019-04-21T01:29:00.097Z,985.40
2019-04-21T01:31:11.111Z,985.40
2019-04-21T01:32:10.457Z,985.39
2019-04-21T01:34:15.098Z,985.36
2019-04-21T01:35:09.886Z,985.38
2019-04-21T01:36:08.199Z,985.35
2019-04-21T01:37:03.936Z,985.31
2019-04-21T01:38:19.110Z,985.31
2019-04-21T01:39:14.989Z,985.32
2019-04-21T01:40:16.307Z,985.28
2019-04-21T01:41:18.038Z,985.29
2019-04-21T01:42:11.358Z,985.26
2019-04-21T01:43:07.998Z,985.24
2019-04-21T01:44:22.486Z,985.21
2019-04-21T01:45:12.492Z,985.25
2019-04-21T01:46:09.243Z,985.20
2019-04-21T01:47:06.117Z,985.18
2019-04-21T01:48:06.560Z,985.16
2019-04-21T01:49:04.622Z,985.14
2019-04-21T01:49:59.306Z,985.10
2019-04-21T01:51:05.336Z,985.09
2019-04-21T01:52:20.816Z,985.08
2019-04-21T01:53:22.568Z,985.09
2019-04-21T01:54:18.437Z,985.11
2019-04-21T01:55:12.694Z,985.10
2019-04-21T01:56:11.877Z,985.08
2019-04-21T01:57:10.426Z,985.09
2019-04-21T01:58:02.333Z,985.12
2019-04-21T01:59:00.802Z,985.11
2019-04-21T02:00:00.971Z,985.10
2019-04-21T02:01:05.662Z,985.08
2019-04-21T02:02:10.749Z,985.10
2019-04-21T02:03:28.610Z,985.07
2019-04-21T02:04:06.882Z,985.11
2019-04-21T02:05:18.808Z,985.12
2019-04-21T02:06:18.461Z,985.11
2019-04-21T02:07:13.157Z,985.12
2019-04-21T02:08:09.856Z,985.10
2019-04-21T02:09:04.021Z,985.10
2019-04-21T02:10:11.115Z,985.08
2019-04-21T02:11:12.523Z,985.07
2019-04-21T02:12:08.774Z,985.05
2019-04-21T02:13:09.038Z,985.05
2019-04-21T02:14:11.341Z,985.04
2019-04-21T02:15:11.350Z,985.04
2019-04-21T02:16:13.736Z,985.03
2019-04-21T02:17:12.260Z,985.03
2019-04-21T02:18:09.186Z,985.00
2019-04-21T02:19:04.368Z,985.00
2019-04-21T02:20:05.415Z,985.00
2019-04-21T02:20:57.076Z,985.00
2019-04-21T02:22:00.707Z,985.02
2019-04-21T02:23:22.318Z,985.00
2019-04-21T02:24:18.818Z,985.02
2019-04-21T02:26:09.824Z,985.03
2019-04-21T02:27:08.629Z,984.99
2019-04-21T02:28:17.617Z,984.98
2019-04-21T02:29:31.399Z,984.99
2019-04-21T02:30:18.315Z,985.04
2019-04-21T02:31:20.945Z,985.01
2019-04-21T02:32:18.373Z,985.00
2019-04-21T02:33:27.044Z,985.00
2019-04-21T02:35:30.404Z,985.00
2019-04-21T02:36:30.819Z,985.00
2019-04-21T02:38:28.032Z,985.00
2019-04-21T02:41:18.290Z,984.95
2019-04-21T02:43:18.759Z,984.90
2019-04-21T02:44:24.025Z,984.91
2019-04-21T02:45:17.101Z,984.91
2019-04-21T02:46:27.424Z,984.89
2019-04-21T02:47:19.081Z,984.88
2019-04-21T02:48:22.664Z,984.84
2019-04-21T02:49:22.812Z,984.83
2019-04-21T02:50:19.012Z,984.86
2019-04-21T02:51:23.409Z,984.83
2019-04-21T02:52:27.443Z,984.87
2019-04-21T02:53:21.132Z,984.84
2019-04-21T02:54:42.096Z,984.82
2019-04-21T02:56:20.409Z,984.79
2019-04-21T02:58:17.880Z,984.80
2019-04-21T02:59:17.228Z,984.81
2019-04-21T03:00:29.059Z,984.80
2019-04-21T03:01:23.901Z,984.76
2019-04-21T03:02:17.217Z,984.77
2019-04-21T03:03:25.908Z,984.77
2019-04-21T03:05:24.331Z,984.75
2019-04-21T03:06:20.701Z,984.71
2019-04-21T03:08:21.981Z,984.73
2019-04-21T03:09:18.264Z,984.74
2019-04-21T03:10:20.571Z,984.71
2019-04-21T03:12:22.321Z,984.67
2019-04-21T03:13:21.670Z,984.68
2019-04-21T03:14:24.966Z,984.69
2019-04-21T03:15:25.565Z,984.65
2019-04-21T03:16:23.511Z,984.67
2019-04-21T03:17:14.197Z,984.66
2019-04-21T03:18:19.593Z,984.65
2019-04-21T03:19:20.382Z,984.65
2019-04-21T03:20:17.429Z,984.66
2019-04-21T03:21:15.450Z,984.71
2019-04-21T03:22:20.400Z,984.66
2019-04-21T03:23:23.398Z,984.63
2019-04-21T03:25:25.289Z,984.66
2019-04-21T03:26:24.909Z,984.68
2019-04-21T03:28:16.292Z,984.64
2019-04-21T03:30:53.094Z,984.66
2019-04-21T03:31:34.772Z,984.62
2019-04-21T03:35:53.509Z,984.56
2019-04-21T03:37:16.961Z,984.56
2019-04-21T03:38:20.868Z,984.56
2019-04-21T03:39:07.620Z,984.58
2019-04-21T03:41:12.060Z,984.59
2019-04-21T03:42:21.612Z,984.56
2019-04-21T03:43:12.642Z,984.56
2019-04-21T03:45:20.552Z,984.52
2019-04-21T03:46:08.575Z,984.51
2019-04-21T03:47:20.830Z,984.52
2019-04-21T03:48:09.825Z,984.50
2019-04-21T03:49:19.264Z,984.50
2019-04-21T03:50:11.409Z,984.47
2019-04-21T03:51:12.511Z,984.49
2019-04-21T03:53:09.546Z,984.45
2019-04-21T03:54:13.791Z,984.44
2019-04-21T03:55:35.827Z,984.43
2019-04-21T03:56:23.269Z,984.47
2019-04-21T03:57:19.971Z,984.47
2019-04-21T03:58:25.926Z,984.45
2019-04-21T03:59:14.195Z,984.47
2019-04-21T04:00:21.632Z,984.49
2019-04-21T04:01:11.362Z,984.48
2019-04-21T04:02:16.345Z,984.51
2019-04-21T04:03:35.032Z,984.47
2019-04-21T04:05:11.048Z,984.48
2019-04-21T04:07:11.404Z,984.46
2019-04-21T04:08:21.794Z,984.49
2019-04-21T04:09:31.380Z,984.45
2019-04-21T04:10:11.854Z,984.49
2019-04-21T04:12:06.930Z,984.44
2019-04-21T04:13:15.674Z,984.45
2019-04-21T04:14:12.865Z,984.45
2019-04-21T04:15:12.384Z,984.43
2019-04-21T04:16:15.400Z,984.43
2019-04-21T04:17:11.838Z,984.43
2019-04-21T04:18:23.404Z,984.45
2019-04-21T04:19:09.290Z,984.46
2019-04-21T04:20:12.270Z,984.48
2019-04-21T04:21:15.073Z,984.46
2019-04-21T04:23:24.796Z,984.46
2019-04-21T04:25:15.466Z,984.46
2019-04-21T04:26:13.063Z,984.43
2019-04-21T04:29:12.294Z,984.47
2019-04-21T04:30:19.756Z,984.46
2019-04-21T04:31:22.287Z,984.46
2019-04-21T04:32:07.995Z,984.45
2019-04-21T04:33:07.960Z,984.45
2019-04-21T04:36:15.595Z,984.49
2019-04-21T04:37:12.311Z,984.47
2019-04-21T04:38:19.619Z,984.45
2019-04-21T04:39:17.599Z,984.48
2019-04-21T04:40:09.233Z,984.50
2019-04-21T04:41:14.565Z,984.46
2019-04-21T04:44:17.772Z,984.47
2019-04-21T04:47:12.337Z,984.45
2019-04-21T04:48:09.171Z,984.47
2019-04-21T04:49:11.449Z,984.44
2019-04-21T04:50:19.740Z,984.42
2019-04-21T04:51:01.379Z,984.42
2019-04-21T04:52:24.668Z,984.40
2019-04-21T04:53:12.005Z,984.39
2019-04-21T04:54:06.261Z,984.41
2019-04-21T04:56:07.691Z,984.41
2019-04-21T04:59:22.646Z,984.44
2019-04-21T05:00:14.298Z,984.42
2019-04-21T05:01:14.674Z,984.43
2019-04-21T05:02:26.478Z,984.43
2019-04-21T05:03:00.979Z,984.40
2019-04-21T05:04:10.321Z,984.41
2019-04-21T05:06:19.366Z,984.41
2019-04-21T05:07:07.122Z,984.45
2019-04-21T05:08:08.444Z,984.42
2019-04-21T05:09:11.015Z,984.46
2019-04-21T05:09:59.532Z,984.46
2019-04-21T05:11:07.930Z,984.46
2019-04-21T05:12:07.757Z,984.44
2019-04-21T05:12:58.770Z,984.44
2019-04-21T05:14:17.142Z,984.46
2019-04-21T05:15:10.133Z,984.43
2019-04-21T05:16:02.162Z,984.42
2019-04-21T05:17:02.299Z,984.44
2019-04-21T05:18:15.328Z,984.47
2019-04-21T05:20:08.626Z,984.44
2019-04-21T05:21:20.251Z,984.46
2019-04-21T05:22:05.292Z,984.46
2019-04-21T05:22:54.265Z,984.46
2019-04-21T05:23:51.029Z,984.47
2019-04-21T05:24:52.385Z,984.50
2019-04-21T05:25:48.662Z,984.46
2019-04-21T05:26:47.997Z,984.46
2019-04-21T05:27:47.921Z,984.46
2019-04-21T05:28:44.605Z,984.47
2019-04-21T05:29:58.725Z,984.47
2019-04-21T05:30:55.447Z,984.46
2019-04-21T05:31:58.388Z,984.43
2019-04-21T05:32:52.578Z,984.46
2019-04-21T05:33:57.678Z,984.51
2019-04-21T05:34:56.922Z,984.51
2019-04-21T05:36:50.554Z,984.53
2019-04-21T05:37:47.307Z,984.52
2019-04-21T05:38:47.742Z,984.53
2019-04-21T05:39:51.259Z,984.49
2019-04-21T05:40:43.652Z,984.49
2019-04-21T05:41:42.988Z,984.46
2019-04-21T05:42:50.966Z,984.49
2019-04-21T05:43:51.738Z,984.50
2019-04-21T05:44:58.126Z,984.49
2019-04-21T05:45:58.531Z,984.50
2019-04-21T05:46:56.453Z,984.50
2019-04-21T05:47:58.472Z,984.45
2019-04-21T05:48:51.913Z,984.44
2019-04-21T05:49:49.852Z,984.44
2019-04-21T05:50:50.905Z,984.44
2019-04-21T05:51:44.307Z,984.49
2019-04-21T05:52:45.941Z,984.51
2019-04-21T05:53:55.929Z,984.47
2019-04-21T05:54:59.573Z,984.46
2019-04-21T05:56:48.850Z,984.52
2019-04-21T05:57:48.162Z,984.51
2019-04-21T05:58:48.468Z,984.49
2019-04-21T05:59:51.612Z,984.49
2019-04-21T06:01:07.872Z,984.49
2019-04-21T06:02:03.092Z,984.46
2019-04-21T06:02:57.695Z,984.44
2019-04-21T06:04:00.223Z,984.48
2019-04-21T06:06:00.321Z,984.47
2019-04-21T06:06:56.947Z,984.43
2019-04-21T06:07:53.755Z,984.49
2019-04-21T06:08:49.980Z,984.44
2019-04-21T06:09:57.319Z,984.44
2019-04-21T06:10:53.921Z,984.46
2019-04-21T06:11:51.423Z,984.43
2019-04-21T06:12:59.625Z,984.40
2019-04-21T06:13:55.087Z,984.45
2019-04-21T06:14:58.430Z,984.46
2019-04-21T06:16:57.156Z,984.43
2019-04-21T06:17:49.163Z,984.43
2019-04-21T06:18:52.984Z,984.47
2019-04-21T06:19:56.919Z,984.42
2019-04-21T06:20:55.073Z,984.44
2019-04-21T06:21:51.571Z,984.43
2019-04-21T06:22:50.791Z,984.42
2019-04-21T06:23:52.135Z,984.39
2019-04-21T06:25:18.634Z,984.39
2019-04-21T06:26:19.866Z,984.38
2019-04-21T06:27:05.328Z,984.38
2019-04-21T06:27:51.132Z,984.39
2019-04-21T06:28:52.550Z,984.41
2019-04-21T06:29:50.305Z,984.39
2019-04-21T06:31:01.546Z,984.41
2019-04-21T06:32:18.749Z,984.42
2019-04-21T06:32:50.852Z,984.43
2019-04-21T06:33:50.829Z,984.42
2019-04-21T06:35:07.306Z,984.44
2019-04-21T06:36:19.799Z,984.41
2019-04-21T06:37:52.267Z,984.34
2019-04-21T06:38:59.626Z,984.33
2019-04-21T06:40:02.502Z,984.33
2019-04-21T06:40:50.121Z,984.37
2019-04-21T06:41:49.167Z,984.37
2019-04-21T06:42:51.452Z,984.38
2019-04-21T06:44:07.565Z,984.36
2019-04-21T06:44:57.495Z,984.38
2019-04-21T06:45:59.016Z,984.36
2019-04-21T06:46:45.994Z,984.37
2019-04-21T06:47:51.248Z,984.36
2019-04-21T06:48:55.426Z,984.34
2019-04-21T06:49:50.278Z,984.33
2019-04-21T06:50:57.140Z,984.34
2019-04-21T06:51:48.180Z,984.29
2019-04-21T06:52:55.013Z,984.28
2019-04-21T06:53:54.232Z,984.27
2019-04-21T06:54:51.098Z,984.30
2019-04-21T06:55:46.710Z,984.25
2019-04-21T06:56:51.665Z,984.25
2019-04-21T06:57:47.372Z,984.25
2019-04-21T06:58:44.611Z,984.26
2019-04-21T06:59:45.243Z,984.26
2019-04-21T07:00:42.454Z,984.22
2019-04-21T07:03:06.202Z,984.22
2019-04-21T07:04:01.752Z,984.23
2019-04-21T07:04:50.532Z,984.21
2019-04-21T07:05:52.773Z,984.22
2019-04-21T07:06:52.106Z,984.19
2019-04-21T07:07:54.930Z,984.18
2019-04-21T07:08:56.715Z,984.17
2019-04-21T07:09:52.986Z,984.15
2019-04-21T07:10:46.459Z,984.11
2019-04-21T07:11:44.353Z,984.11
2019-04-21T07:12:45.015Z,984.12
2019-04-21T07:13:52.931Z,984.11
2019-04-21T07:14:48.249Z,984.11
2019-04-21T07:15:59.813Z,984.15
2019-04-21T07:16:53.147Z,984.11
2019-04-21T07:17:45.404Z,984.14
2019-04-21T07:18:51.261Z,984.15
2019-04-21T07:19:48.442Z,984.11
2019-04-21T07:20:49.167Z,984.09
2019-04-21T07:21:45.565Z,984.10
2019-04-21T07:22:49.214Z,984.07
2019-04-21T07:23:45.970Z,984.10
2019-04-21T07:24:46.161Z,984.06
2019-04-21T07:25:49.322Z,984.09
2019-04-21T07:26:42.707Z,984.04
2019-04-21T07:27:50.714Z,984.07
2019-04-21T07:28:47.844Z,984.01
2019-04-21T07:29:47.413Z,984.06
2019-04-21T07:30:43.950Z,984.03
2019-04-21T07:31:57.252Z,983.99
2019-04-21T07:32:51.340Z,983.99
2019-04-21T07:33:53.405Z,983.98
2019-04-21T07:34:49.867Z,983.96
2019-04-21T07:35:43.282Z,983.98
2019-04-21T07:36:53.379Z,983.98
2019-04-21T07:37:41.567Z,983.95
2019-04-21T07:38:41.291Z,983.95
2019-04-21T07:39:38.914Z,983.98
2019-04-21T07:40:38.960Z,983.98
2019-04-21T07:41:39.763Z,983.95
2019-04-21T07:42:39.973Z,984.01
2019-04-21T07:43:38.103Z,984.00
2019-04-21T07:44:34.976Z,984.01
2019-04-21T07:45:36.699Z,983.99
2019-04-21T07:46:37.236Z,983.94
2019-04-21T07:47:44.504Z,983.96
2019-04-21T07:48:43.270Z,983.95
2019-04-21T07:49:48.819Z,983.93
2019-04-21T07:50:39.142Z,983.95
2019-04-21T07:51:47.954Z,983.96
2019-04-21T07:52:49.091Z,983.95
2019-04-21T07:53:49.445Z,983.94
2019-04-21T07:54:44.378Z,983.93
2019-04-21T07:56:28.388Z,983.95
2019-04-21T07:57:39.164Z,983.96
2019-04-21T07:58:47.705Z,983.89
2019-04-21T07:59:52.411Z,983.95
2019-04-21T08:00:51.429Z,983.95
2019-04-21T08:01:48.422Z,983.90
2019-04-21T08:02:40.411Z,983.91
2019-04-21T08:03:38.833Z,983.92
2019-04-21T08:04:54.177Z,983.95
2019-04-21T08:05:58.422Z,983.92
2019-04-21T08:06:40.595Z,983.91
2019-04-21T08:07:52.166Z,983.89
2019-04-21T08:08:42.284Z,983.90
2019-04-21T08:09:42.663Z,983.87
2019-04-21T08:10:39.187Z,983.87
2019-04-21T08:11:36.670Z,983.88
2019-04-21T08:12:36.294Z,983.87
2019-04-21T08:14:57.535Z,983.89
2019-04-21T08:15:39.947Z,983.86
2019-04-21T08:16:39.660Z,983.84
2019-04-21T08:17:42.610Z,983.87
2019-04-21T08:18:39.876Z,983.89
2019-04-21T08:19:35.892Z,983.88
2019-04-21T08:20:38.271Z,983.91
2019-04-21T08:21:46.234Z,983.86
2019-04-21T08:22:41.242Z,983.88
2019-04-21T08:23:38.448Z,983.91
2019-04-21T08:24:47.015Z,983.90
2019-04-21T08:25:45.858Z,983.86
2019-04-21T08:26:45.032Z,983.91
2019-04-21T08:27:42.459Z,983.91
2019-04-21T08:28:43.752Z,983.89
2019-04-21T08:29:40.850Z,983.92
2019-04-21T08:30:36.590Z,983.87
2019-04-21T08:31:49.931Z,983.89
2019-04-21T08:32:57.249Z,983.87
2019-04-21T08:34:43.254Z,983.83
2019-04-21T08:36:33.917Z,983.78
2019-04-21T08:37:39.920Z,983.83
2019-04-21T08:38:41.285Z,983.79
2019-04-21T08:39:49.409Z,983.77
2019-04-21T08:41:39.564Z,983.77
2019-04-21T08:42:43.252Z,983.76
2019-04-21T08:43:43.098Z,983.74
2019-04-21T08:44:45.193Z,983.71
2019-04-21T08:46:44.659Z,983.72
2019-04-21T08:48:39.308Z,983.65
2019-04-21T08:49:38.720Z,983.65
2019-04-21T08:50:41.574Z,983.63
2019-04-21T08:51:41.292Z,983.66
2019-04-21T08:53:44.185Z,983.59
2019-04-21T08:54:36.788Z,983.62
2019-04-21T08:55:40.021Z,983.59
2019-04-21T08:56:33.905Z,983.54
2019-04-21T08:57:41.441Z,983.56
2019-04-21T08:58:41.505Z,983.58
2019-04-21T08:59:36.340Z,983.58
2019-04-21T09:00:38.488Z,983.55
2019-04-21T09:01:38.337Z,983.53
2019-04-21T09:02:43.236Z,983.57
2019-04-21T09:03:37.145Z,983.57
2019-04-21T09:04:33.434Z,983.55
2019-04-21T09:05:35.600Z,983.56
2019-04-21T09:06:58.878Z,983.54
2019-04-21T09:07:41.407Z,983.54
2019-04-21T09:08:33.125Z,983.54
2019-04-21T09:09:34.986Z,983.54
2019-04-21T09:10:35.657Z,983.52
2019-04-21T09:11:37.569Z,983.49
2019-04-21T09:13:35.596Z,983.47
2019-04-21T09:14:39.568Z,983.48
2019-04-21T09:15:30.919Z,983.45
2019-04-21T09:16:31.229Z,983.44
2019-04-21T09:17:28.610Z,983.45
2019-04-21T09:18:29.863Z,983.45
2019-04-21T09:19:45.642Z,983.43
2019-04-21T09:20:38.801Z,983.42
2019-04-21T09:21:31.772Z,983.44
2019-04-21T09:22:30.465Z,983.42
2019-04-21T09:23:36.525Z,983.41
2019-04-21T09:24:39.054Z,983.42
2019-04-21T09:25:40.804Z,983.44
2019-04-21T09:26:29.417Z,983.42
2019-04-21T09:27:35.628Z,983.40
2019-04-21T09:28:25.638Z,983.36
2019-04-21T09:29:25.316Z,983.34
2019-04-21T09:30:15.172Z,983.35
2019-04-21T09:31:19.184Z,983.30
2019-04-21T09:32:21.321Z,983.29
2019-04-21T09:33:14.117Z,983.29
2019-04-21T09:34:21.069Z,983.26
2019-04-21T09:35:15.465Z,983.28
2019-04-21T09:36:18.058Z,983.22
2019-04-21T09:37:26.845Z,983.24
2019-04-21T09:38:22.672Z,983.20
2019-04-21T09:39:18.276Z,983.15
2019-04-21T09:40:14.969Z,983.19
2019-04-21T09:41:17.491Z,983.20
2019-04-21T09:42:13.626Z,983.22
2019-04-21T09:43:18.696Z,983.17
2019-04-21T09:44:17.162Z,983.17
2019-04-21T09:45:14.346Z,983.14
2019-04-21T09:46:13.917Z,983.13
2019-04-21T09:47:14.281Z,983.12
2019-04-21T09:48:17.571Z,983.11
2019-04-21T09:49:15.733Z,983.10
2019-04-21T09:50:13.477Z,983.10
2019-04-21T09:51:13.076Z,983.08
2019-04-21T09:52:18.815Z,983.05
2019-04-21T09:53:22.200Z,983.03
2019-04-21T09:54:17.451Z,983.06
2019-04-21T09:55:17.327Z,983.06
2019-04-21T09:56:16.639Z,983.01
2019-04-21T09:57:24.299Z,983.02
2019-04-21T09:58:21.821Z,982.96
2019-04-21T09:59:18.040Z,983.00
2019-04-21T10:00:15.231Z,982.92
2019-04-21T10:01:20.434Z,982.97
2019-04-21T10:02:19.319Z,982.93
2019-04-21T10:03:14.017Z,982.93
2019-04-21T10:04:11.996Z,982.89
2019-04-21T10:05:12.305Z,982.95
2019-04-21T10:06:11.578Z,982.95
2019-04-21T10:07:23.708Z,982.92
2019-04-21T10:08:12.417Z,982.92
2019-04-21T10:09:14.405Z,982.87
2019-04-21T10:10:10.785Z,982.85
2019-04-21T10:11:11.851Z,982.84
2019-04-21T10:12:11.828Z,982.85
2019-04-21T10:13:10.686Z,982.79
2019-04-21T10:14:11.623Z,982.81
2019-04-21T10:15:10.717Z,982.76
2019-04-21T10:16:10.869Z,982.76
2019-04-21T10:17:10.879Z,982.78
2019-04-21T10:18:10.805Z,982.72
2019-04-21T10:19:11.201Z,982.72
2019-04-21T10:20:11.612Z,982.72
2019-04-21T10:21:17.439Z,982.72
2019-04-21T10:23:13.787Z,982.72
2019-04-21T10:24:13.692Z,982.69
2019-04-21T10:26:18.685Z,982.69
2019-04-21T10:27:17.444Z,982.61
2019-04-21T10:29:25.520Z,982.61
2019-04-21T10:30:22.405Z,982.60
2019-04-21T10:32:15.332Z,982.60
2019-04-21T10:33:14.428Z,982.57
2019-04-21T10:35:20.425Z,982.55
2019-04-21T10:36:17.670Z,982.48
2019-04-21T10:38:30.212Z,982.50
2019-04-21T10:39:21.771Z,982.47
2019-04-21T10:40:21.370Z,982.46
2019-04-21T10:41:21.552Z,982.40
2019-04-21T10:42:21.479Z,982.43
2019-04-21T10:43:23.677Z,982.42
2019-04-21T10:44:21.129Z,982.47
2019-04-21T10:45:21.213Z,982.46
2019-04-21T10:46:20.915Z,982.43
2019-04-21T10:47:20.834Z,982.48
2019-04-21T10:48:20.983Z,982.43
2019-04-21T10:49:20.685Z,982.44
2019-04-21T10:50:20.610Z,982.36
2019-04-21T10:51:21.222Z,982.32
2019-04-21T10:52:20.464Z,982.33
2019-04-21T10:53:20.860Z,982.28
2019-04-21T10:54:20.315Z,982.25
2019-04-21T10:55:38.984Z,982.24
2019-04-21T10:56:29.138Z,982.24
2019-04-21T10:57:20.153Z,982.21
2019-04-21T10:58:20.323Z,982.27
2019-04-21T10:59:20.445Z,982.25
2019-04-21T11:00:19.870Z,982.25
2019-04-21T11:01:21.053Z,982.21
2019-04-21T11:02:21.013Z,982.22
2019-04-21T11:03:19.647Z,982.26
2019-04-21T11:04:21.874Z,982.24
2019-04-21T11:05:20.743Z,982.20
2019-04-21T11:06:20.858Z,982.16
2019-04-21T11:07:21.570Z,982.11
2019-04-21T11:08:27.951Z,982.12
2019-04-21T11:09:20.080Z,982.15
2019-04-21T11:10:20.358Z,982.09
2019-04-21T11:11:19.620Z,982.12
2019-04-21T11:12:19.815Z,982.08
2019-04-21T11:13:18.912Z,982.10
2019-04-21T11:14:18.833Z,982.07
2019-04-21T11:15:19.027Z,982.04
2019-04-21T11:16:19.200Z,982.05
2019-04-21T11:17:19.550Z,982.01
2019-04-21T11:18:19.784Z,982.04
2019-04-21T11:19:18.466Z,982.01
2019-04-21T11:20:19.207Z,982.04
2019-04-21T11:21:18.759Z,982.03
2019-04-21T11:22:18.907Z,981.96
2019-04-21T11:23:21.189Z,982.00
2019-04-21T11:24:18.267Z,981.97
2019-04-21T11:25:18.034Z,982.00
2019-04-21T11:26:18.110Z,981.97
2019-04-21T11:27:19.122Z,981.95
2019-04-21T11:28:18.646Z,981.94
2019-04-21T11:29:19.060Z,981.95
2019-04-21T11:30:17.814Z,981.97
2019-04-21T11:31:18.816Z,982.00
2019-04-21T11:32:17.527Z,981.99
2019-04-21T11:33:17.463Z,981.94
2019-04-21T11:34:17.385Z,981.97
2019-04-21T11:35:17.313Z,982.01
2019-04-21T11:36:17.448Z,981.99
2019-04-21T11:37:17.166Z,982.05
2019-04-21T11:38:21.824Z,982.04
2019-04-21T11:39:27.287Z,982.06
2019-04-21T11:40:19.728Z,982.03
2019-04-21T11:41:19.127Z,981.96
2019-04-21T11:42:17.613Z,982.02
2019-04-21T11:43:17.792Z,982.02
2019-04-21T11:44:16.712Z,981.98
2019-04-21T11:45:16.649Z,981.94
2019-04-21T11:46:16.586Z,981.99
2019-04-21T11:47:16.521Z,982.00
2019-04-21T11:48:16.669Z,981.98
2019-04-21T11:49:16.400Z,981.88
2019-04-21T11:50:17.070Z,981.84
2019-04-21T11:51:17.168Z,981.80
2019-04-21T11:52:16.584Z,981.78
2019-04-21T11:53:16.846Z,981.78
2019-04-21T11:54:17.066Z,981.75
2019-04-21T11:55:16.584Z,981.75
2019-04-21T11:56:16.824Z,981.74
2019-04-21T11:57:22.734Z,981.73
2019-04-21T11:58:16.061Z,981.67
2019-04-21T11:59:15.809Z,981.72
2019-04-21T12:00:15.837Z,981.68
2019-04-21T12:01:15.909Z,981.69
2019-04-21T12:02:15.639Z,981.68
2019-04-21T12:03:17.055Z,981.69
2019-04-21T12:04:16.158Z,981.64
2019-04-21T12:05:15.467Z,981.71
2019-04-21T12:06:15.554Z,981.62
2019-04-21T12:07:15.533Z,981.64
2019-04-21T12:08:22.974Z,981.61
2019-04-21T12:09:15.246Z,981.62
2019-04-21T12:10:15.500Z,981.64
2019-04-21T12:11:15.855Z,981.64
2019-04-21T12:12:15.156Z,981.62
2019-04-21T12:13:16.163Z,981.58
2019-04-21T12:14:16.180Z,981.59
2019-04-21T12:15:14.920Z,981.58
2019-04-21T12:16:15.028Z,981.55
2019-04-21T12:17:16.058Z,981.55
2019-04-21T12:18:15.539Z,981.52
2019-04-21T12:19:14.692Z,981.54
2019-04-21T12:20:14.830Z,981.56
2019-04-21T12:21:15.701Z,981.51
2019-04-21T12:22:21.620Z,981.48
2019-04-21T12:23:14.504Z,981.44
2019-04-21T12:24:15.228Z,981.47
2019-04-21T12:25:15.494Z,981.38
2019-04-21T12:26:14.318Z,981.36
2019-04-21T12:27:14.269Z,981.35
2019-04-21T12:28:14.331Z,981.35
2019-04-21T12:29:14.581Z,981.39
2019-04-21T12:30:14.115Z,981.38
2019-04-21T12:31:14.058Z,981.34
2019-04-21T12:32:14.006Z,981.34
2019-04-21T12:33:14.103Z,981.27
2019-04-21T12:34:14.172Z,981.25
2019-04-21T12:35:13.847Z,981.20
2019-04-21T12:36:13.910Z,981.19
2019-04-21T12:37:15.080Z,981.15
2019-04-21T12:38:13.690Z,981.15
2019-04-21T12:39:14.913Z,981.11
2019-04-21T12:40:14.709Z,981.13
2019-04-21T12:41:14.803Z,981.08
2019-04-21T12:42:14.407Z,981.09
2019-04-21T12:43:14.637Z,981.08
2019-04-21T12:44:13.378Z,981.06
2019-04-21T12:45:13.325Z,981.06
2019-04-21T12:46:13.901Z,981.02
2019-04-21T12:47:14.156Z,981.00
2019-04-21T12:48:13.797Z,980.95
2019-04-21T12:49:13.797Z,980.99
2019-04-21T12:50:13.080Z,980.97
2019-04-21T12:51:13.017Z,980.93
2019-04-21T12:52:13.542Z,980.97
2019-04-21T12:53:15.550Z,980.95
2019-04-21T12:54:12.865Z,980.94
2019-04-21T12:55:13.520Z,980.86
2019-04-21T12:56:13.705Z,980.85
2019-04-21T12:57:13.785Z,980.88
2019-04-21T12:58:13.151Z,980.83
2019-04-21T12:59:12.608Z,980.85
2019-04-21T13:00:13.138Z,980.83
2019-04-21T13:01:12.620Z,980.82
2019-04-21T13:02:13.634Z,980.78
2019-04-21T13:03:12.395Z,980.79
2019-04-21T13:04:13.409Z,980.74
2019-04-21T13:05:13.342Z,980.78
2019-04-21T13:06:12.245Z,980.72
2019-04-21T13:07:13.300Z,980.73
2019-04-21T13:08:13.383Z,980.72
2019-04-21T13:09:14.979Z,980.70
2019-04-21T13:10:12.708Z,980.63
2019-04-21T13:11:13.181Z,980.68
2019-04-21T13:12:13.026Z,980.67
2019-04-21T13:13:12.183Z,980.65
2019-04-21T13:14:11.834Z,980.66
2019-04-21T13:15:11.781Z,980.60
2019-04-21T13:16:11.769Z,980.58
2019-04-21T13:17:13.029Z,980.53
2019-04-21T13:18:12.408Z,980.56
2019-04-21T13:19:11.627Z,980.53
2019-04-21T13:20:11.734Z,980.54
2019-04-21T13:21:12.054Z,980.53
2019-04-21T13:22:12.194Z,980.49
2019-04-21T13:23:12.229Z,980.50
2019-04-21T13:24:11.628Z,980.48
2019-04-21T13:25:11.902Z,980.50
2019-04-21T13:26:11.447Z,980.46
2019-04-21T13:27:12.707Z,980.47
2019-04-21T13:28:12.415Z,980.44
2019-04-21T13:29:12.259Z,980.44
2019-04-21T13:30:11.043Z,980.44
2019-04-21T13:31:11.998Z,980.40
2019-04-21T13:32:12.444Z,980.39
2019-04-21T13:33:11.274Z,980.41
2019-04-21T13:34:10.813Z,980.38
2019-04-21T13:35:10.866Z,980.34
2019-04-21T13:36:11.747Z,980.35
2019-04-21T13:37:11.937Z,980.30